Time;durP1;ratioP1;P1;durP2;ratioP2;P2;SDS_P1;SDS_P2;PMS_P1;PMS_P2;Temp;Humidity;BMP_temperature;BMP_pressure;BME280_temperature;BME280_humidity;BME280_pressure;Samples;Min_cycle;Max_cycle;Signal;HPM_P1;HPM_P2
2022/06/01 00:01:15;;;;;;;2.40;2.13;;;19.10;54.20;;;;;;10057804;28;20055;-71
2022/06/01 00:06:06;;;;;;;3.28;2.38;;;19.00;54.80;;;;;;10059998;28;20115;-72
2022/06/01 00:10:57;;;;;;;4.63;1.60;;;19.00;55.50;;;;;;10057233;28;20029;-72
2022/06/01 00:15:48;;;;;;;3.42;2.33;;;19.00;55.90;;;;;;10057288;28;20482;-71
2022/06/01 00:20:40;;;;;;;3.65;1.83;;;18.80;56.30;;;;;;10057743;28;20049;-70
2022/06/01 00:25:30;;;;;;;2.35;2.15;;;18.90;56.80;;;;;;10064734;28;20024;-73
2022/06/01 00:30:22;;;;;;;3.33;2.58;;;18.90;57.10;;;;;;10056944;28;20040;-71
2022/06/01 00:35:15;;;;;;;2.55;2.10;;;18.70;57.60;;;;;;10054681;28;20057;-71
2022/06/01 00:40:07;;;;;;;6.13;2.63;;;18.70;58.00;;;;;;10062175;28;20113;-70
2022/06/01 00:44:58;;;;;;;3.15;1.98;;;18.60;58.60;;;;;;10057081;28;20018;-72
2022/06/01 00:50:06;;;;;;;3.42;1.83;;;18.60;58.90;;;;;;10057500;28;20052;-72
2022/06/01 00:54:57;;;;;;;2.53;2.03;;;18.60;59.70;;;;;;10060169;28;20032;-70
2022/06/01 00:59:48;;;;;;;2.42;1.95;;;18.50;59.60;;;;;;10054743;28;20064;-69
2022/06/01 01:04:42;;;;;;;2.90;1.85;;;18.50;60.00;;;;;;10038950;28;20491;-70
2022/06/01 01:09:34;;;;;;;2.42;1.77;;;18.30;60.80;;;;;;10055987;28;20109;-70
2022/06/01 01:14:29;;;;;;;3.15;1.90;;;18.20;61.00;;;;;;10053135;28;20103;-70
2022/06/01 01:19:26;;;;;;;2.72;1.98;;;18.30;61.30;;;;;;10054388;28;20029;-69
2022/06/01 01:24:32;;;;;;;4.35;1.90;;;18.30;62.40;;;;;;10054766;28;20017;-71
2022/06/01 01:29:30;;;;;;;;;;;18.20;62.10;;;;;;10066503;28;20045;-71
2022/06/01 01:34:21;;;;;;;3.83;2.10;;;18.10;62.40;;;;;;10059315;28;19991;-71
2022/06/01 01:39:15;;;;;;;4.00;2.33;;;18.00;62.20;;;;;;10056614;28;20052;-69
2022/06/01 01:44:09;;;;;;;1.95;1.55;;;17.90;62.60;;;;;;10049392;28;20030;-70
2022/06/01 01:49:02;;;;;;;3.15;2.00;;;17.90;63.10;;;;;;10071393;28;20483;-71
2022/06/01 01:53:56;;;;;;;1.88;1.60;;;17.80;63.40;;;;;;10064459;28;21067;-71
2022/06/01 01:59:11;;;;;;;2.40;2.03;;;17.80;63.70;;;;;;10053253;28;20041;-71
2022/06/01 02:06:03;;;;;;;2.50;2.27;;;17.70;64.70;;;;;;10054540;28;20094;-72
2022/06/01 02:09:21;;;;;;;4.22;2.25;;;17.50;64.60;;;;;;10053099;28;20347;-70
2022/06/01 02:14:51;;;;;;;5.70;1.88;;;17.60;64.80;;;;;;10053110;28;20108;-70
2022/06/01 02:19:50;;;;;;;6.18;2.40;;;17.50;65.70;;;;;;9934464;28;20045;-71
2022/06/01 02:24:42;;;;;;;2.88;2.45;;;17.30;65.70;;;;;;10052269;28;20483;-71
2022/06/01 02:29:44;;;;;;;2.88;2.17;;;17.40;65.80;;;;;;10054073;28;20354;-71
2022/06/01 02:34:37;;;;;;;2.65;1.80;;;17.40;66.30;;;;;;10057070;28;20523;-70
2022/06/01 02:39:30;;;;;;;3.38;2.47;;;17.10;67.10;;;;;;10052017;28;20037;-70
2022/06/01 02:44:21;;;;;;;4.93;2.63;;;17.20;67.20;;;;;;10060900;28;20025;-72
2022/06/01 02:49:12;;;;;;;2.10;1.92;;;17.10;67.40;;;;;;10052253;28;20052;-70
2022/06/01 02:54:04;;;;;;;4.03;2.28;;;17.20;67.80;;;;;;10037991;28;20036;-73
2022/06/01 02:58:56;;;;;;;3.63;2.10;;;17.10;68.20;;;;;;10053290;28;20038;-73
2022/06/01 03:03:47;;;;;;;3.28;1.95;;;17.10;68.30;;;;;;10052667;28;20024;-72
2022/06/01 03:08:38;;;;;;;4.05;2.13;;;17.10;68.70;;;;;;10049829;28;20033;-72
2022/06/01 03:13:28;;;;;;;3.75;2.25;;;16.90;69.20;;;;;;10053169;28;20033;-74
2022/06/01 03:18:20;;;;;;;3.05;2.35;;;16.90;69.80;;;;;;10051920;28;20038;-72
2022/06/01 03:23:10;;;;;;;2.97;2.35;;;16.80;70.10;;;;;;10059271;28;20454;-73
2022/06/01 03:28:01;;;;;;;4.20;2.42;;;16.90;70.20;;;;;;10060343;28;20192;-72
2022/06/01 03:32:52;;;;;;;3.38;2.05;;;16.80;70.60;;;;;;10059094;28;20025;-72
2022/06/01 03:37:43;;;;;;;3.33;2.40;;;16.70;71.00;;;;;;10062068;28;20029;-74
2022/06/01 03:42:35;;;;;;;4.68;1.75;;;16.80;71.20;;;;;;10060913;28;20033;-71
2022/06/01 03:47:27;;;;;;;4.43;2.28;;;16.70;71.50;;;;;;10060365;28;20105;-72
2022/06/01 03:52:29;;;;;;;3.47;2.15;;;16.70;71.80;;;;;;10066685;28;20246;-73
2022/06/01 03:57:19;;;;;;;2.40;1.90;;;16.70;71.90;;;;;;10028909;28;20056;-71
2022/06/01 04:02:10;;;;;;;4.03;2.20;;;16.60;72.20;;;;;;10057917;28;20033;-73
2022/06/01 04:07:01;;;;;;;2.35;1.88;;;16.60;72.40;;;;;;10057294;28;20299;-73
2022/06/01 04:11:52;;;;;;;3.30;2.45;;;16.60;72.60;;;;;;10059897;28;20029;-70
2022/06/01 04:16:43;;;;;;;3.70;1.77;;;16.50;73.00;;;;;;10058835;28;20029;-71
2022/06/01 04:21:36;;;;;;;2.67;1.95;;;16.60;73.10;;;;;;10061418;28;20033;-71
2022/06/01 04:26:29;;;;;;;3.95;2.33;;;16.70;73.30;;;;;;10054537;28;20141;-72
2022/06/01 04:31:20;;;;;;;4.05;2.10;;;16.70;73.30;;;;;;10062660;28;20022;-71
2022/06/01 04:36:13;;;;;;;3.70;2.30;;;16.80;73.30;;;;;;10063541;28;20023;-71
2022/06/01 04:41:04;;;;;;;6.00;2.38;;;16.70;73.40;;;;;;10063399;28;20403;-68
2022/06/01 04:46:05;;;;;;;4.65;2.42;;;16.60;74.10;;;;;;10057224;28;20114;-68
2022/06/01 04:50:59;;;;;;;3.92;2.70;;;16.50;74.30;;;;;;10046209;28;20542;-69
2022/06/01 04:55:56;;;;;;;3.85;2.20;;;16.50;74.00;;;;;;10041167;28;20455;-69
2022/06/01 05:00:54;;;;;;;3.95;2.25;;;16.40;74.20;;;;;;10057371;28;20172;-69
2022/06/01 05:05:46;;;;;;;4.85;2.28;;;16.30;74.40;;;;;;10056518;28;20026;-70
2022/06/01 05:10:47;;;;;;;2.83;2.20;;;16.40;74.40;;;;;;10037193;28;20215;-70
2022/06/01 05:15:53;;;;;;;3.00;2.08;;;16.60;74.10;;;;;;10056579;28;20018;-69
2022/06/01 05:20:45;;;;;;;;;;;16.60;74.00;;;;;;10047025;28;20041;-69
2022/06/01 05:25:39;;;;;;;3.03;2.50;;;16.70;73.70;;;;;;10047357;28;20425;-70
2022/06/01 05:30:30;;;;;;;3.72;2.53;;;16.60;73.70;;;;;;10055887;28;20492;-69
2022/06/01 05:35:37;;;;;;;3.83;2.30;;;16.70;73.60;;;;;;10057735;28;20026;-70
2022/06/01 05:40:44;;;;;;;5.63;2.47;;;16.80;73.60;;;;;;10052647;28;20065;-68
2022/06/01 05:45:42;;;;;;;3.30;2.60;;;16.70;73.60;;;;;;10036282;28;20062;-69
2022/06/01 05:50:33;;;;;;;4.30;2.50;;;16.80;73.50;;;;;;10065879;23;20351;-63
2022/06/01 05:55:24;;;;;;;2.75;2.47;;;17.00;73.50;;;;;;10053064;28;20033;-63
2022/06/01 06:00:16;;;;;;;5.10;2.22;;;17.10;73.30;;;;;;10051254;28;20042;-63
2022/06/01 06:06:11;;;;;;;4.43;2.53;;;17.20;73.50;;;;;;10053234;28;20021;-63
2022/06/01 06:10:19;;;;;;;4.50;2.22;;;17.20;73.60;;;;;;10042772;28;20033;-63
2022/06/01 06:15:10;;;;;;;3.38;1.90;;;17.30;73.70;;;;;;10044425;28;20033;-64
2022/06/01 06:20:01;;;;;;;3.80;2.10;;;17.50;73.70;;;;;;10052726;28;20064;-63
2022/06/01 06:24:52;;;;;;;3.42;2.72;;;17.60;73.80;;;;;;10044390;28;20032;-63
2022/06/01 06:29:42;;;;;;;5.07;2.40;;;17.60;73.80;;;;;;10052756;28;20498;-63
2022/06/01 06:34:33;;;;;;;4.10;3.30;;;17.80;73.90;;;;;;10051054;28;20030;-63
2022/06/01 06:39:23;;;;;;;4.13;2.47;;;17.90;73.70;;;;;;10052059;28;20041;-64
2022/06/01 06:44:14;;;;;;;4.78;2.58;;;17.90;74.10;;;;;;10052090;28;20021;-64
2022/06/01 06:49:05;;;;;;;3.15;2.42;;;18.10;74.00;;;;;;10048531;28;20053;-64
2022/06/01 06:53:55;;;;;;;4.25;2.40;;;18.10;74.00;;;;;;10050587;28;20109;-64
2022/06/01 06:58:46;;;;;;;3.30;2.20;;;18.30;74.00;;;;;;10032411;28;20086;-63
2022/06/01 07:03:40;;;;;;;3.65;2.47;;;18.20;74.10;;;;;;10050063;28;20128;-65
2022/06/01 07:08:31;;;;;;;3.08;2.78;;;18.40;74.10;;;;;;10050280;28;20109;-65
2022/06/01 07:13:22;;;;;;;3.90;2.25;;;18.40;73.90;;;;;;10051472;28;20109;-65
2022/06/01 07:18:13;;;;;;;3.50;2.33;;;18.50;73.90;;;;;;10032526;28;20025;-63
2022/06/01 07:23:04;;;;;;;2.97;2.17;;;18.70;73.30;;;;;;10050854;28;20551;-64
2022/06/01 07:27:56;;;;;;;2.42;2.00;;;18.60;73.20;;;;;;10049408;28;20359;-62
2022/06/01 07:32:48;;;;;;;3.15;1.73;;;18.70;73.00;;;;;;10050636;28;20020;-63
2022/06/01 07:43:10;;;;;;;2.85;2.35;;;19.10;72.00;;;;;;10048432;28;20285;-64
2022/06/01 07:48:05;;;;;;;5.70;2.08;;;19.30;71.60;;;;;;10028002;28;20084;-65
2022/06/01 07:52:56;;;;;;;;;;;19.40;71.00;;;;;;10047825;28;20057;-63
2022/06/01 07:57:47;;;;;;;4.30;2.08;;;19.70;70.50;;;;;;10031234;28;19991;-63
2022/06/01 08:02:38;;;;;;;2.13;1.70;;;19.70;70.00;;;;;;10049825;28;20713;-63
2022/06/01 08:07:29;;;;;;;2.80;1.67;;;20.00;69.40;;;;;;10051926;28;20095;-64
2022/06/01 08:17:29;;;;;;;7.95;2.63;;;20.60;67.70;;;;;;10055921;28;20032;-62
2022/06/01 08:22:23;;;;;;;7.47;2.17;;;20.60;67.20;;;;;;10055642;28;20044;-64
2022/06/01 08:27:13;;;;;;;5.45;2.25;;;20.60;66.70;;;;;;10055109;28;20037;-63
2022/06/01 08:32:08;;;;;;;7.88;2.58;;;20.60;66.30;;;;;;10037160;28;20852;-65
2022/06/01 08:36:58;;;;;;;2.00;1.30;;;20.60;65.80;;;;;;10053274;28;20034;-66
2022/06/01 08:41:49;;;;;;;2.55;1.95;;;20.80;65.20;;;;;;10055806;28;20037;-65
2022/06/01 08:46:43;;;;;;;3.63;2.15;;;20.80;64.30;;;;;;10054089;28;20029;-65
2022/06/01 08:51:34;;;;;;;3.55;2.00;;;21.00;63.80;;;;;;10053606;28;20047;-63
2022/06/01 08:56:34;;;;;;;5.20;2.97;;;21.10;63.10;;;;;;10055795;28;20021;-63
2022/06/01 09:02:05;;;;;;;3.83;2.20;;;21.40;62.60;;;;;;10055114;28;20056;-63
2022/06/01 09:07:26;;;;;;;3.72;1.60;;;21.50;61.30;;;;;;10054679;28;20030;-64
2022/06/01 09:12:17;;;;;;;2.88;1.35;;;21.50;61.00;;;;;;10048904;28;20028;-63
2022/06/01 09:17:08;;;;;;;2.38;2.10;;;21.40;61.10;;;;;;10054069;28;20029;-63
2022/06/01 09:27:13;;;;;;;2.80;1.40;;;21.80;60.10;;;;;;10052677;28;20188;-64
2022/06/01 09:32:07;;;;;;;5.25;1.92;;;21.90;59.80;;;;;;10053273;28;20037;-64
2022/06/01 09:37:26;;;;;;;2.00;1.40;;;22.10;59.20;;;;;;10053527;28;20020;-63
2022/06/01 09:42:25;;;;;;;3.38;1.63;;;22.30;58.40;;;;;;10052490;28;20045;-63
2022/06/01 09:47:28;;;;;;;3.75;1.95;;;22.40;58.20;;;;;;10040933;28;20068;-64
2022/06/01 09:52:31;;;;;;;2.15;1.30;;;22.40;57.50;;;;;;10035211;28;20477;-63
2022/06/01 09:57:33;;;;;;;4.65;1.45;;;22.40;57.50;;;;;;10052517;28;20372;-62
2022/06/01 10:07:36;;;;;;;1.63;1.23;;;22.40;56.90;;;;;;10052768;28;20037;-62
2022/06/01 10:12:47;;;;;;;3.45;1.55;;;22.40;56.70;;;;;;10049769;28;20067;-65
2022/06/01 10:17:42;;;;;;;3.45;1.75;;;22.40;56.20;;;;;;10029289;28;20040;-63
2022/06/01 10:22:46;;;;;;;5.03;1.85;;;22.50;56.00;;;;;;10051853;28;20510;-64
2022/06/01 10:28:02;;;;;;;2.05;1.58;;;22.70;55.50;;;;;;10050410;28;20033;-65
2022/06/01 10:33:04;;;;;;;5.07;1.58;;;22.90;54.60;;;;;;10051567;28;20121;-65
2022/06/01 10:38:08;;;;;;;2.85;1.40;;;22.90;54.40;;;;;;10051943;28;20688;-62
2022/06/01 10:43:19;;;;;;;3.13;1.43;;;23.30;53.70;;;;;;10052248;28;20037;-62
2022/06/01 10:48:31;;;;;;;2.88;1.80;;;23.40;53.40;;;;;;10048340;28;20017;-64
2022/06/01 10:53:38;;;;;;;1.90;1.40;;;23.50;52.70;;;;;;10012517;28;20277;-65
2022/06/01 10:58:31;;;;;;;1.80;1.27;;;23.60;52.80;;;;;;10010339;28;20645;-64
2022/06/01 11:03:55;;;;;;;3.25;1.70;;;23.40;52.70;;;;;;10009618;28;20480;-65
2022/06/01 11:08:54;;;;;;;2.55;1.30;;;23.40;52.40;;;;;;10009016;28;20014;-65
2022/06/01 11:13:51;;;;;;;2.50;1.58;;;23.40;52.40;;;;;;10010058;28;20420;-63
2022/06/01 11:18:54;;;;;;;2.55;1.50;;;23.90;52.10;;;;;;10013086;28;20030;-63
2022/06/01 11:24:06;;;;;;;3.33;1.67;;;24.70;51.30;;;;;;10002665;28;20030;-63
2022/06/01 11:29:34;;;;;;;1.70;1.40;;;24.80;50.30;;;;;;10010390;28;20033;-65
2022/06/01 11:34:44;;;;;;;1.65;1.10;;;24.70;50.40;;;;;;10006646;28;20034;-62
2022/06/01 11:39:51;;;;;;;2.53;1.48;;;24.80;49.80;;;;;;10008089;28;20511;-60
2022/06/01 11:44:56;;;;;;;1.10;0.98;;;24.80;49.20;;;;;;10020825;28;20029;-62
2022/06/01 11:50:17;;;;;;;1.83;1.30;;;25.00;48.40;;;;;;10031172;28;20550;-65
2022/06/01 11:55:10;;;;;;;1.30;1.00;;;25.30;47.10;;;;;;10059642;28;20032;-62
2022/06/01 12:00:14;;;;;;;1.40;1.30;;;25.40;46.50;;;;;;10041781;28;20041;-64
2022/06/01 12:05:09;;;;;;;2.80;1.10;;;24.90;45.70;;;;;;10059801;28;20097;-62
2022/06/01 12:10:17;;;;;;;1.30;0.90;;;24.90;45.50;;;;;;10058884;28;20701;-63
2022/06/01 12:16:03;;;;;;;1.25;1.08;;;25.00;44.70;;;;;;10059293;28;20048;-61
2022/06/01 12:21:29;;;;;;;2.05;1.20;;;24.80;44.30;;;;;;9997488;28;20053;-63
2022/06/01 12:31:57;;;;;;;1.77;1.10;;;25.50;44.10;;;;;;10047383;28;20586;-63
2022/06/01 12:36:58;;;;;;;2.63;1.10;;;25.10;43.20;;;;;;10054689;28;20371;-62
2022/06/01 12:41:53;;;;;;;2.33;1.00;;;24.90;43.30;;;;;;10037960;28;20057;-63
2022/06/01 12:46:48;;;;;;;2.13;1.00;;;25.10;43.00;;;;;;10055264;28;20088;-62
2022/06/01 12:51:41;;;;;;;1.45;0.95;;;26.40;42.80;;;;;;10054228;28;20088;-63
2022/06/01 12:56:32;;;;;;;1.52;1.13;;;27.80;42.00;;;;;;10048239;28;20082;-66
2022/06/01 13:01:31;;;;;;;2.15;1.10;;;28.90;41.60;;;;;;10055907;28;20187;-64
2022/06/01 13:06:24;;;;;;;1.40;0.80;;;27.00;41.20;;;;;;10028259;28;20018;-63
2022/06/01 13:11:26;;;;;;;3.10;1.33;;;26.50;41.00;;;;;;10053978;28;20108;-64
2022/06/01 13:16:19;;;;;;;3.28;1.20;;;26.90;40.20;;;;;;10053400;28;20038;-62
2022/06/01 13:21:16;;;;;;;1.52;1.40;;;26.60;40.40;;;;;;10054741;28;20042;-66
2022/06/01 13:26:09;;;;;;;4.10;1.27;;;26.10;40.60;;;;;;10054524;28;20018;-66
2022/06/01 13:31:01;;;;;;;2.38;1.08;;;30.00;39.40;;;;;;10054143;28;20511;-65
2022/06/01 13:36:01;;;;;;;1.30;0.90;;;30.70;38.80;;;;;;10053762;28;20159;-65
2022/06/01 13:41:03;;;;;;;4.53;1.08;;;31.70;37.70;;;;;;10035725;28;20041;-66
2022/06/01 13:45:57;;;;;;;2.45;1.10;;;30.10;38.20;;;;;;10050583;28;20049;-68
2022/06/01 13:50:54;;;;;;;6.28;1.27;;;28.70;38.10;;;;;;10052660;28;20052;-65
2022/06/01 13:56:05;;;;;;;1.60;0.90;;;28.70;38.20;;;;;;10053301;28;20021;-66
2022/06/01 14:01:10;;;;;;;1.85;1.58;;;27.10;38.10;;;;;;10033652;28;20083;-67
2022/06/01 14:06:06;;;;;;;1.92;1.00;;;26.20;38.90;;;;;;10052502;28;20585;-63
2022/06/01 14:11:03;;;;;;;1.85;1.73;;;26.10;38.80;;;;;;10052005;28;20084;-65
2022/06/01 14:15:55;;;;;;;1.10;1.00;;;26.10;38.70;;;;;;10052514;28;20572;-64
2022/06/01 14:20:45;;;;;;;1.83;1.30;;;26.10;38.60;;;;;;10051279;28;20049;-62
2022/06/01 14:30:45;;;;;;;2.50;1.25;;;27.00;37.80;;;;;;10052784;28;20541;-64
2022/06/01 14:35:36;;;;;;;2.38;1.02;;;26.80;38.20;;;;;;10051217;28;20067;-63
2022/06/01 14:40:30;;;;;;;3.60;1.17;;;26.30;38.30;;;;;;10050519;28;20526;-63
2022/06/01 14:45:21;;;;;;;;;;;26.10;38.50;;;;;;10042479;28;20087;-64
2022/06/01 14:50:12;;;;;;;2.00;0.80;;;26.10;38.50;;;;;;10045504;28;19917;-64
2022/06/01 14:55:03;;;;;;;1.55;0.88;;;25.90;38.70;;;;;;10050250;28;20087;-65
2022/06/01 14:59:53;;;;;;;1.90;1.15;;;25.70;38.90;;;;;;10051750;28;20155;-64
2022/06/01 15:04:46;;;;;;;3.22;1.20;;;25.80;38.90;;;;;;10051786;28;20330;-64
2022/06/01 15:09:37;;;;;;;1.20;0.80;;;25.70;38.80;;;;;;10050985;28;20111;-64
2022/06/01 15:14:28;;;;;;;2.78;1.15;;;25.80;39.00;;;;;;10051460;28;20116;-65
2022/06/01 15:19:20;;;;;;;2.75;1.00;;;26.10;38.80;;;;;;10058424;28;20060;-65
2022/06/01 15:24:11;;;;;;;2.38;1.10;;;25.80;39.00;;;;;;10058341;28;20022;-64
2022/06/01 15:30:57;;;;;;;0.80;0.77;;;25.80;39.20;;;;;;10058612;28;20488;-65
2022/06/01 15:39:34;;;;;;;2.33;1.33;;;27.80;38.40;;;;;;10051257;28;20076;-64
2022/06/01 15:44:24;;;;;;;0.82;0.82;;;27.80;38.80;;;;;;10057432;28;20112;-64
2022/06/01 15:49:17;;;;;;;0.90;0.80;;;29.20;38.10;;;;;;10056854;28;20480;-67
2022/06/01 15:54:08;;;;;;;2.55;1.30;;;30.10;37.20;;;;;;10057067;28;20120;-65
2022/06/01 15:58:59;;;;;;;1.10;0.90;;;28.00;38.50;;;;;;10055969;28;20132;-64
2022/06/01 16:03:50;;;;;;;1.60;1.40;;;27.50;38.70;;;;;;10057881;28;20490;-64
2022/06/01 16:08:42;;;;;;;6.25;1.40;;;27.80;38.20;;;;;;10040541;28;20025;-66
2022/06/01 16:13:33;;;;;;;1.52;1.13;;;29.60;37.30;;;;;;10057120;28;20323;-66
2022/06/01 16:18:23;;;;;;;1.20;1.10;;;32.10;36.00;;;;;;10057578;28;20045;-67
2022/06/01 16:23:14;;;;;;;2.05;1.35;;;34.10;35.70;;;;;;10038560;28;20104;-67
2022/06/01 16:28:06;;;;;;;4.20;1.30;;;34.30;34.50;;;;;;10055066;28;20206;-66
2022/06/01 16:32:56;;;;;;;2.13;1.20;;;35.10;34.00;;;;;;10057639;28;20017;-64
2022/06/01 16:37:47;;;;;;;2.50;1.13;;;35.60;33.30;;;;;;10056124;28;20467;-64
2022/06/01 16:42:39;;;;;;;1.23;1.13;;;35.50;32.80;;;;;;10057065;28;20061;-65
2022/06/01 16:47:33;;;;;;;2.25;1.10;;;35.60;32.60;;;;;;10056438;28;20022;-66
2022/06/01 16:52:33;;;;;;;2.53;1.05;;;36.10;32.10;;;;;;10056398;28;20041;-67
2022/06/01 16:57:26;;;;;;;3.58;1.38;;;36.30;31.30;;;;;;10054159;28;20025;-68
2022/06/01 17:02:17;;;;;;;2.28;1.00;;;36.40;31.30;;;;;;10056770;28;20029;-67
2022/06/01 17:07:14;;;;;;;3.67;1.15;;;33.70;32.00;;;;;;10052973;28;20029;-69
2022/06/01 17:12:07;;;;;;;1.05;0.90;;;30.90;33.70;;;;;;10036449;28;20025;-69
2022/06/01 17:16:57;;;;;;;1.48;1.08;;;30.20;34.10;;;;;;10037706;28;20070;-67
2022/06/01 17:21:49;;;;;;;2.05;1.15;;;30.50;34.50;;;;;;10055065;28;20040;-68
2022/06/01 17:26:39;;;;;;;1.45;1.15;;;31.50;33.00;;;;;;10054913;28;20025;-64
2022/06/01 17:31:31;;;;;;;2.97;1.40;;;28.40;35.50;;;;;;10037682;28;20491;-65
2022/06/01 17:36:22;;;;;;;3.05;1.33;;;27.30;36.60;;;;;;10051800;28;20032;-66
2022/06/01 17:41:13;;;;;;;3.63;1.20;;;27.30;36.50;;;;;;10055187;28;20176;-68
2022/06/01 17:46:05;;;;;;;2.00;1.40;;;27.90;36.20;;;;;;10054530;28;20427;-63
2022/06/01 17:50:57;;;;;;;1.33;1.23;;;26.70;37.20;;;;;;10053107;28;20045;-62
2022/06/01 17:55:48;;;;;;;2.40;1.50;;;29.20;36.40;;;;;;10042857;28;20549;-64
2022/06/01 18:00:38;;;;;;;2.50;1.10;;;28.90;36.10;;;;;;10035399;28;20045;-64
2022/06/01 18:05:36;;;;;;;2.97;1.25;;;27.50;37.40;;;;;;10046160;28;20606;-65
2022/06/01 18:10:27;;;;;;;2.63;1.23;;;26.70;38.30;;;;;;10044131;28;20024;-65
2022/06/01 18:15:19;;;;;;;2.38;1.50;;;26.00;38.60;;;;;;10035601;28;20025;-64
2022/06/01 18:20:28;;;;;;;1.73;0.93;;;25.70;38.70;;;;;;10050834;28;20034;-65
2022/06/01 18:25:19;;;;;;;2.22;1.00;;;25.80;39.00;;;;;;10049968;28;20488;-66
2022/06/01 18:30:15;;;;;;;3.78;1.10;;;25.50;39.20;;;;;;10050124;28;20491;-65
2022/06/01 18:35:06;;;;;;;2.53;1.10;;;25.20;39.30;;;;;;10052230;28;20283;-65
2022/06/01 18:39:57;;;;;;;1.33;1.20;;;24.80;39.60;;;;;;10051739;28;20040;-67
2022/06/01 18:44:48;;;;;;;5.20;1.60;;;24.60;39.80;;;;;;10052090;28;20065;-65
2022/06/01 18:49:40;;;;;;;17.08;7.60;;;24.40;39.70;;;;;;10052454;28;20523;-65
2022/06/01 18:54:34;;;;;;;1.80;1.45;;;24.40;39.90;;;;;;10038434;28;20068;-65
2022/06/01 19:04:34;;;;;;;2.00;1.23;;;24.30;40.10;;;;;;10037443;28;19916;-64
2022/06/01 19:09:25;;;;;;;2.55;1.10;;;24.10;40.10;;;;;;10051174;28;20131;-65
2022/06/01 19:14:15;;;;;;;2.53;1.38;;;23.90;40.10;;;;;;10033591;28;20105;-64
2022/06/01 19:19:17;;;;;;;3.22;1.27;;;23.70;40.50;;;;;;10050991;28;20091;-65
2022/06/01 19:24:12;;;;;;;4.40;2.60;;;23.40;40.80;;;;;;10050268;28;20033;-63
2022/06/01 19:29:07;;;;;;;3.97;1.60;;;23.30;40.90;;;;;;10050505;28;20535;-64
2022/06/01 19:33:58;;;;;;;;;;;23.20;40.90;;;;;;10045260;28;20022;-64
2022/06/01 19:44:06;;;;;;;2.58;1.20;;;23.00;41.20;;;;;;10048153;28;20040;-64
2022/06/01 19:48:57;;;;;;;2.42;1.27;;;22.80;41.40;;;;;;10047111;28;20021;-65
2022/06/01 19:53:52;;;;;;;1.10;1.00;;;23.00;41.70;;;;;;10048406;28;20014;-63
2022/06/01 19:58:42;;;;;;;3.88;1.23;;;22.80;41.80;;;;;;10049900;28;20108;-64
2022/06/01 20:03:33;;;;;;;2.22;1.52;;;22.70;41.90;;;;;;10054862;28;20492;-64
2022/06/01 20:08:24;;;;;;;1.92;1.15;;;22.60;42.00;;;;;;10056092;28;20112;-64
2022/06/01 20:13:16;;;;;;;2.92;1.02;;;22.40;42.30;;;;;;10057331;28;20125;-63
2022/06/01 20:18:08;;;;;;;1.38;0.90;;;22.50;42.40;;;;;;10057800;28;20033;-65
2022/06/01 20:22:58;;;;;;;8.70;4.68;;;22.30;43.20;;;;;;10057644;28;20204;-64
2022/06/01 20:27:49;;;;;;;2.38;1.30;;;22.30;42.70;;;;;;10039578;28;20289;-64
2022/06/01 20:32:40;;;;;;;2.55;1.20;;;22.20;42.70;;;;;;10058166;28;20144;-64
2022/06/01 20:37:31;;;;;;;2.13;0.90;;;22.10;42.70;;;;;;10056674;28;20027;-65
2022/06/01 20:42:22;;;;;;;2.63;0.90;;;22.00;43.00;;;;;;10056730;28;20128;-63
2022/06/01 20:47:13;;;;;;;2.03;0.85;;;21.90;43.10;;;;;;10056511;28;20082;-64
2022/06/01 20:52:04;;;;;;;1.50;0.88;;;21.80;43.00;;;;;;10056751;28;20054;-64
2022/06/01 20:56:55;;;;;;;1.45;0.73;;;22.00;42.90;;;;;;10054092;28;20064;-64
2022/06/01 21:01:46;;;;;;;2.63;1.02;;;21.80;43.30;;;;;;10046580;28;20060;-64
2022/06/01 21:06:36;;;;;;;1.17;0.82;;;21.80;43.10;;;;;;10055744;28;20034;-63
2022/06/01 21:11:28;;;;;;;1.85;0.90;;;21.80;43.10;;;;;;10055282;28;20096;-64
2022/06/01 21:16:19;;;;;;;1.90;0.93;;;21.60;43.50;;;;;;10053883;28;20026;-65
2022/06/01 21:21:10;;;;;;;2.17;1.10;;;21.70;43.40;;;;;;10055323;28;20029;-63
2022/06/01 21:26:02;;;;;;;0.70;0.63;;;21.60;43.30;;;;;;10056140;28;20647;-63
2022/06/01 21:30:53;;;;;;;2.75;0.70;;;21.60;43.60;;;;;;10055302;28;20105;-66
2022/06/01 21:35:43;;;;;;;1.10;1.00;;;21.60;43.50;;;;;;10055956;28;20025;-64
2022/06/01 21:40:34;;;;;;;1.52;0.88;;;21.60;43.50;;;;;;10043126;28;20432;-64
2022/06/01 21:45:25;;;;;;;4.32;1.08;;;21.60;43.70;;;;;;10054987;28;20033;-64
2022/06/01 21:50:17;;;;;;;1.65;0.88;;;21.50;44.40;;;;;;10053615;28;20050;-63
2022/06/01 21:55:11;;;;;;;1.15;1.00;;;21.60;43.60;;;;;;10054283;28;20048;-62
2022/06/01 22:00:06;;;;;;;1.95;1.05;;;21.40;43.90;;;;;;10035359;28;20048;-64
2022/06/01 22:04:56;;;;;;;1.90;0.87;;;21.20;43.90;;;;;;10035531;28;20029;-66
2022/06/01 22:09:47;;;;;;;3.28;0.90;;;21.10;44.00;;;;;;10052925;28;20259;-65
2022/06/01 22:14:40;;;;;;;2.25;0.88;;;21.20;44.10;;;;;;10053696;28;20028;-64
2022/06/01 22:19:30;;;;;;;1.77;1.30;;;21.20;44.10;;;;;;10052785;28;20213;-63
2022/06/01 22:24:21;;;;;;;3.60;1.58;;;21.20;44.10;;;;;;10052444;28;20514;-64
2022/06/01 22:29:11;;;;;;;1.38;0.95;;;21.10;44.10;;;;;;10052052;28;20031;-63
2022/06/01 22:34:02;;;;;;;1.75;1.38;;;21.10;44.40;;;;;;10052652;28;20052;-62
2022/06/01 22:38:53;;;;;;;1.73;1.40;;;20.90;45.00;;;;;;10051604;28;20442;-64
2022/06/01 22:43:44;;;;;;;2.25;0.73;;;20.90;44.40;;;;;;10051784;28;20120;-63
2022/06/01 22:48:35;;;;;;;0.75;0.65;;;20.80;44.60;;;;;;10051615;28;20601;-64
2022/06/01 22:53:28;;;;;;;1.40;0.80;;;20.70;44.50;;;;;;10034357;28;20415;-63
2022/06/01 22:58:18;;;;;;;1.85;1.20;;;20.70;44.80;;;;;;10051806;28;20334;-63
2022/06/01 23:03:10;;;;;;;3.38;0.95;;;20.60;44.80;;;;;;10051256;28;20068;-63
2022/06/01 23:08:01;;;;;;;1.25;0.82;;;20.40;45.10;;;;;;10051913;28;20021;-63
2022/06/01 23:12:57;;;;;;;2.35;1.10;;;20.40;45.20;;;;;;10051711;28;20029;-63
2022/06/01 23:17:48;;;;;;;1.00;0.65;;;20.30;45.50;;;;;;10051078;28;20013;-63
2022/06/01 23:22:39;;;;;;;1.52;0.70;;;20.30;45.80;;;;;;10051123;28;20511;-63
2022/06/01 23:27:30;;;;;;;1.67;0.65;;;20.20;46.60;;;;;;10051688;28;20029;-66
2022/06/01 23:32:36;;;;;;;0.80;0.80;;;20.00;46.70;;;;;;10027443;28;20034;-59
2022/06/01 23:37:48;;;;;;;;;;;19.70;47.80;;;;;;10037520;28;20443;-59
2022/06/01 23:42:50;;;;;;;0.80;0.80;;;19.50;49.60;;;;;;10057767;28;19959;-58
2022/06/01 23:47:46;;;;;;;1.17;1.00;;;19.40;48.70;;;;;;10058382;28;20658;-59
2022/06/01 23:52:58;;;;;;;1.05;0.75;;;19.40;49.00;;;;;;10058139;28;20119;-59
2022/06/01 23:58:33;;;;;;;1.02;0.90;;;19.20;49.90;;;;;;10048729;28;20084;-58
